Almagrundet, Sweden

7:46 AM CEST on October 25, 2014 (GMT +0200)
ITROUVIL2 | Change Station
CLOSE
Current Station
Personal Weather Station
Location: Sandhamn, TROUVILLE
Elevation: 10 ft
Nearby Weather Stations

Elev 10 ft 59.28 °N, 18.93 °E | Updated 1 minute ago

Overcast
Overcast
46.0 °F
Feels Like 39 °F
N
16.0
Wind Variable Wind from South
Gusts 26.0 mph

Today
High -- | Low -- °F
--% Chance of Precip.
Yesterday
High -- | Low -- °F
Precip. -- in
7:44 AM 5:09 PM
New Moon, 2% visible
Pressure 29.98 in
Visibility 6.2 miles
Clouds Mostly Cloudy 1800 ft
Mostly Cloudy 2200 ft
Overcast 2700 ft
Windchill 39 °F
Dew Point 46 °F
Humidity 100%
Rainfall 0.00 in
Snow Depth Not available.
UV 0 out of 12
Pollen Not available.
Air Quality Not available.
Flu Activity Not available.
METAR ESSB 250520Z AUTO 18010KT 150V210 9999 BKN018/// BKN022/// OVC027/// 11/08 Q1015

More Conditions Fewer Conditions

Pressure 29.98 in
Visibility 6.2 miles
Clouds Mostly Cloudy 1800 ft
Mostly Cloudy 2200 ft
Overcast 2700 ft
Windchill 39 °F
Dew Point 46 °F
Humidity 100%
Rainfall 0.00 in
Snow Depth Not available.
UV 0 out of 12
Pollen Not available.
Air Quality Not available.
Flu Activity Not available.
METAR ESSB 250520Z AUTO 18010KT 150V210 9999 BKN018/// BKN022/// OVC027/// 11/08 Q1015

More Conditions Fewer Conditions

10-Day Weather Forecast

Almanac

Astronomy

Oct. 25, 2014 Rise Set
Actual Time 7:44 AM CEST 5:09 PM CEST
Civil Twilight 7:01 AM CEST 5:52 PM CEST
Nautical Twilight 6:14 AM CEST 6:39 PM CEST
Astronomical Twilight 5:27 AM CEST 7:26 PM CEST
Moon 9:21 AM CEST 5:59 PM CEST
Length of Visible Light 10h 50m
Length of Day
9h 25m
Tomorrow will be 5m 4s shorter.
New Moon, 2% of the Moon is Illuminated
Today
New Moon
Oct 30
First Quarter
Nov 6
Full
Nov 14
Last Quarter
Nov 22
New

Yesterday's Extremes

Country Highs Country Lows

Community

WunderPhotos

Upload Photos

1,764,785 photos uploaded!

Nearby

Snow Depth

Not available.

Earthquake Activity

City Distance Mag. Time & Date
No recent earthquake activity has been reported nearby.
Minimum magnitude displayed is 2.5.

Coastal Water Temperatures

Place Temperature
No Stations Reporting

Nearby Weather Stations